sensor_id;sensor_type;location;lat;lon;timestamp;pressure;altitude;pressure_sealevel;temperature;humidity
26807;BME280;14380;49.910;6.792;2023-05-29T00:00:31;99022.06;;;13.39;100.00
26807;BME280;14380;49.910;6.792;2023-05-29T00:02:58;99030.19;;;13.51;100.00
26807;BME280;14380;49.910;6.792;2023-05-29T00:05:26;99031.50;;;13.58;100.00
26807;BME280;14380;49.910;6.792;2023-05-29T00:07:53;99027.91;;;13.59;100.00
26807;BME280;14380;49.910;6.792;2023-05-29T00:10:19;99026.25;;;13.71;100.00
26807;BME280;14380;49.910;6.792;2023-05-29T00:12:47;99031.72;;;13.26;100.00
26807;BME280;14380;49.910;6.792;2023-05-29T00:15:14;99025.38;;;13.43;100.00
26807;BME280;14380;49.910;6.792;2023-05-29T00:17:40;99018.44;;;13.41;100.00
26807;BME280;14380;49.910;6.792;2023-05-29T00:20:09;99025.16;;;13.32;100.00
26807;BME280;14380;49.910;6.792;2023-05-29T00:22:37;99026.97;;;13.31;100.00
26807;BME280;14380;49.910;6.792;2023-05-29T00:25:06;99019.22;;;13.28;100.00
26807;BME280;14380;49.910;6.792;2023-05-29T00:27:34;99020.63;;;13.48;100.00
26807;BME280;14380;49.910;6.792;2023-05-29T00:30:04;99025.06;;;13.04;100.00
26807;BME280;14380;49.910;6.792;2023-05-29T00:37:33;99028.13;;;12.98;100.00
26807;BME280;14380;49.910;6.792;2023-05-29T00:39:59;99030.94;;;12.95;100.00
26807;BME280;14380;49.910;6.792;2023-05-29T00:42:25;99030.59;;;13.01;100.00
26807;BME280;14380;49.910;6.792;2023-05-29T00:44:51;99032.47;;;13.28;100.00
26807;BME280;14380;49.910;6.792;2023-05-29T00:47:17;99029.06;;;13.26;100.00
26807;BME280;14380;49.910;6.792;2023-05-29T00:49:43;99035.19;;;13.27;100.00
26807;BME280;14380;49.910;6.792;2023-05-29T00:52:10;99031.34;;;13.32;100.00
26807;BME280;14380;49.910;6.792;2023-05-29T00:54:38;99032.06;;;13.05;100.00
26807;BME280;14380;49.910;6.792;2023-05-29T01:58:35;99028.91;;;12.09;100.00
26807;BME280;14380;49.910;6.792;2023-05-29T02:01:03;99025.75;;;12.18;100.00
26807;BME280;14380;49.910;6.792;2023-05-29T02:03:31;99033.63;;;12.03;100.00
26807;BME280;14380;49.910;6.792;2023-05-29T02:05:59;99039.59;;;12.07;100.00
26807;BME280;14380;49.910;6.792;2023-05-29T02:08:26;99035.59;;;12.00;100.00
26807;BME280;14380;49.910;6.792;2023-05-29T02:10:53;99034.03;;;12.12;100.00
26807;BME280;14380;49.910;6.792;2023-05-29T02:13:20;99032.47;;;12.24;100.00
26807;BME280;14380;49.910;6.792;2023-05-29T02:15:48;99035.50;;;12.01;100.00
26807;BME280;14380;49.910;6.792;2023-05-29T02:18:15;99045.41;;;11.66;100.00
26807;BME280;14380;49.910;6.792;2023-05-29T02:20:42;99034.97;;;11.95;100.00
26807;BME280;14380;49.910;6.792;2023-05-29T02:23:09;99031.28;;;11.81;100.00
26807;BME280;14380;49.910;6.792;2023-05-29T02:25:36;99031.97;;;11.53;100.00
26807;BME280;14380;49.910;6.792;2023-05-29T02:28:04;99035.47;;;11.53;100.00
26807;BME280;14380;49.910;6.792;2023-05-29T02:30:31;99032.34;;;11.47;100.00
26807;BME280;14380;49.910;6.792;2023-05-29T02:32:59;99023.03;;;11.55;100.00
26807;BME280;14380;49.910;6.792;2023-05-29T02:35:25;99028.66;;;11.49;100.00
26807;BME280;14380;49.910;6.792;2023-05-29T02:37:52;99023.97;;;11.38;100.00
26807;BME280;14380;49.910;6.792;2023-05-29T02:40:20;99024.13;;;11.01;100.00
26807;BME280;14380;49.910;6.792;2023-05-29T02:42:47;99027.75;;;11.16;100.00
26807;BME280;14380;49.910;6.792;2023-05-29T02:45:14;99019.06;;;11.30;100.00
26807;BME280;14380;49.910;6.792;2023-05-29T02:47:40;99032.97;;;11.18;100.00
26807;BME280;14380;49.910;6.792;2023-05-29T02:50:09;99023.09;;;11.04;100.00
26807;BME280;14380;49.910;6.792;2023-05-29T02:52:36;99028.84;;;11.12;100.00
26807;BME280;14380;49.910;6.792;2023-05-29T02:55:03;99031.00;;;11.22;100.00
26807;BME280;14380;49.910;6.792;2023-05-29T02:57:30;99023.06;;;11.22;100.00
26807;BME280;14380;49.910;6.792;2023-05-29T02:59:57;99024.19;;;11.34;100.00
26807;BME280;14380;49.910;6.792;2023-05-29T03:02:24;99027.88;;;11.47;100.00
26807;BME280;14380;49.910;6.792;2023-05-29T03:04:51;99032.25;;;11.14;100.00
26807;BME280;14380;49.910;6.792;2023-05-29T03:07:20;99034.88;;;11.32;100.00
26807;BME280;14380;49.910;6.792;2023-05-29T03:09:46;99038.13;;;11.04;100.00
26807;BME280;14380;49.910;6.792;2023-05-29T03:12:13;99034.41;;;11.24;100.00
26807;BME280;14380;49.910;6.792;2023-05-29T03:14:39;99038.19;;;11.36;100.00
26807;BME280;14380;49.910;6.792;2023-05-29T03:17:06;99040.22;;;11.30;100.00
26807;BME280;14380;49.910;6.792;2023-05-29T03:19:33;99045.56;;;11.13;100.00
26807;BME280;14380;49.910;6.792;2023-05-29T03:22:00;99046.84;;;10.88;100.00
26807;BME280;14380;49.910;6.792;2023-05-29T03:24:28;99056.72;;;11.02;100.00
26807;BME280;14380;49.910;6.792;2023-05-29T03:26:54;99056.78;;;11.00;100.00
26807;BME280;14380;49.910;6.792;2023-05-29T03:29:21;99056.38;;;11.08;100.00
26807;BME280;14380;49.910;6.792;2023-05-29T03:31:48;99050.94;;;11.27;100.00
26807;BME280;14380;49.910;6.792;2023-05-29T03:34:14;99057.13;;;11.10;100.00
26807;BME280;14380;49.910;6.792;2023-05-29T03:36:41;99057.72;;;10.99;100.00
26807;BME280;14380;49.910;6.792;2023-05-29T03:39:07;99051.59;;;10.99;100.00
26807;BME280;14380;49.910;6.792;2023-05-29T03:41:35;99057.81;;;10.80;100.00
26807;BME280;14380;49.910;6.792;2023-05-29T03:44:02;99064.81;;;10.81;100.00
26807;BME280;14380;49.910;6.792;2023-05-29T03:46:31;99067.06;;;10.71;100.00
26807;BME280;14380;49.910;6.792;2023-05-29T03:48:57;99072.56;;;10.84;100.00
26807;BME280;14380;49.910;6.792;2023-05-29T03:51:24;99066.25;;;11.05;100.00
26807;BME280;14380;49.910;6.792;2023-05-29T03:53:50;99077.00;;;11.35;100.00
26807;BME280;14380;49.910;6.792;2023-05-29T03:56:17;99078.72;;;11.52;100.00
26807;BME280;14380;49.910;6.792;2023-05-29T03:58:45;99075.66;;;11.76;100.00
26807;BME280;14380;49.910;6.792;2023-05-29T04:01:12;99083.97;;;11.70;100.00
26807;BME280;14380;49.910;6.792;2023-05-29T04:03:38;99084.31;;;11.96;100.00
26807;BME280;14380;49.910;6.792;2023-05-29T04:06:08;99084.75;;;12.20;100.00
26807;BME280;14380;49.910;6.792;2023-05-29T04:08:36;99081.94;;;12.07;100.00
26807;BME280;14380;49.910;6.792;2023-05-29T04:11:03;99084.31;;;12.58;100.00
26807;BME280;14380;49.910;6.792;2023-05-29T04:13:30;99093.97;;;12.90;100.00
26807;BME280;14380;49.910;6.792;2023-05-29T04:15:58;99091.97;;;12.93;100.00
26807;BME280;14380;49.910;6.792;2023-05-29T04:18:25;99108.28;;;12.57;100.00
26807;BME280;14380;49.910;6.792;2023-05-29T04:20:51;99107.63;;;12.98;100.00
26807;BME280;14380;49.910;6.792;2023-05-29T04:23:18;99109.88;;;13.49;100.00
26807;BME280;14380;49.910;6.792;2023-05-29T04:25:45;99104.72;;;14.04;100.00
26807;BME280;14380;49.910;6.792;2023-05-29T04:28:12;99110.38;;;13.26;100.00
26807;BME280;14380;49.910;6.792;2023-05-29T04:30:38;99107.00;;;13.96;100.00
26807;BME280;14380;49.910;6.792;2023-05-29T04:33:08;99109.75;;;14.49;100.00
26807;BME280;14380;49.910;6.792;2023-05-29T04:35:37;99119.31;;;14.11;100.00
26807;BME280;14380;49.910;6.792;2023-05-29T04:38:04;99126.81;;;13.32;100.00
26807;BME280;14380;49.910;6.792;2023-05-29T04:40:31;99118.88;;;13.90;100.00
26807;BME280;14380;49.910;6.792;2023-05-29T04:42:58;99119.28;;;14.66;100.00
26807;BME280;14380;49.910;6.792;2023-05-29T04:45:27;99126.25;;;14.27;100.00
26807;BME280;14380;49.910;6.792;2023-05-29T04:47:53;99133.81;;;14.61;100.00
26807;BME280;14380;49.910;6.792;2023-05-29T04:50:22;99134.66;;;14.89;100.00
26807;BME280;14380;49.910;6.792;2023-05-29T04:52:50;99138.34;;;15.26;100.00
26807;BME280;14380;49.910;6.792;2023-05-29T04:55:16;99140.13;;;15.13;100.00
26807;BME280;14380;49.910;6.792;2023-05-29T04:57:43;99155.38;;;14.83;100.00
26807;BME280;14380;49.910;6.792;2023-05-29T05:00:10;99157.63;;;15.43;99.18
26807;BME280;14380;49.910;6.792;2023-05-29T05:02:40;99157.09;;;15.89;100.00
26807;BME280;14380;49.910;6.792;2023-05-29T05:05:07;99158.66;;;15.14;100.00
26807;BME280;14380;49.910;6.792;2023-05-29T05:07:35;99153.13;;;15.95;100.00
26807;BME280;14380;49.910;6.792;2023-05-29T05:10:02;99154.75;;;16.22;100.00
26807;BME280;14380;49.910;6.792;2023-05-29T05:12:29;99152.25;;;16.45;96.17
26807;BME280;14380;49.910;6.792;2023-05-29T05:14:56;99157.81;;;15.91;99.55
26807;BME280;14380;49.910;6.792;2023-05-29T05:17:22;99148.84;;;16.67;98.99
26807;BME280;14380;49.910;6.792;2023-05-29T05:19:49;99145.78;;;17.20;96.21
26807;BME280;14380;49.910;6.792;2023-05-29T05:22:17;99155.16;;;17.02;94.39
26807;BME280;14380;49.910;6.792;2023-05-29T05:24:45;99163.25;;;17.24;91.48
26807;BME280;14380;49.910;6.792;2023-05-29T05:27:11;99167.44;;;17.63;89.40
26807;BME280;14380;49.910;6.792;2023-05-29T05:29:38;99166.44;;;17.41;91.52
26807;BME280;14380;49.910;6.792;2023-05-29T05:32:05;99170.63;;;17.79;92.26
26807;BME280;14380;49.910;6.792;2023-05-29T05:34:32;99162.59;;;17.68;88.91
26807;BME280;14380;49.910;6.792;2023-05-29T05:36:58;99158.81;;;17.93;88.78
26807;BME280;14380;49.910;6.792;2023-05-29T05:39:25;99160.16;;;17.76;90.71
26807;BME280;14380;49.910;6.792;2023-05-29T05:41:53;99164.28;;;17.92;88.76
26807;BME280;14380;49.910;6.792;2023-05-29T05:44:19;99156.47;;;18.34;89.78
26807;BME280;14380;49.910;6.792;2023-05-29T05:46:46;99166.00;;;17.81;90.69
26807;BME280;14380;49.910;6.792;2023-05-29T05:49:13;99166.25;;;18.12;87.20
26807;BME280;14380;49.910;6.792;2023-05-29T05:51:40;99169.91;;;18.11;88.32
26807;BME280;14380;49.910;6.792;2023-05-29T05:54:07;99168.34;;;18.09;91.10
26807;BME280;14380;49.910;6.792;2023-05-29T05:56:34;99171.34;;;18.04;87.26
26807;BME280;14380;49.910;6.792;2023-05-29T05:59:02;99162.72;;;18.23;88.85
26807;BME280;14380;49.910;6.792;2023-05-29T06:01:28;99161.94;;;18.44;87.20
26807;BME280;14380;49.910;6.792;2023-05-29T06:03:55;99165.78;;;18.07;87.63
26807;BME280;14380;49.910;6.792;2023-05-29T06:06:22;99157.66;;;18.53;87.54
26807;BME280;14380;49.910;6.792;2023-05-29T06:08:48;99163.91;;;18.31;87.83
26807;BME280;14380;49.910;6.792;2023-05-29T06:11:15;99155.50;;;18.47;86.78
26807;BME280;14380;49.910;6.792;2023-05-29T06:13:42;99166.25;;;18.56;86.98
26807;BME280;14380;49.910;6.792;2023-05-29T06:16:10;99171.78;;;18.43;88.94
26807;BME280;14380;49.910;6.792;2023-05-29T06:18:37;99174.03;;;18.60;89.22
26807;BME280;14380;49.910;6.792;2023-05-29T06:21:03;99166.25;;;18.56;88.62
26807;BME280;14380;49.910;6.792;2023-05-29T06:23:32;99164.75;;;18.75;89.29
26807;BME280;14380;49.910;6.792;2023-05-29T06:26:01;99164.19;;;18.71;85.47
26807;BME280;14380;49.910;6.792;2023-05-29T06:28:28;99178.81;;;18.45;87.01
26807;BME280;14380;49.910;6.792;2023-05-29T06:30:55;99173.38;;;18.79;86.62
26807;BME280;14380;49.910;6.792;2023-05-29T06:33:23;99169.00;;;18.78;85.40
26807;BME280;14380;49.910;6.792;2023-05-29T06:35:49;99167.91;;;19.13;83.91
26807;BME280;14380;49.910;6.792;2023-05-29T06:38:16;99165.03;;;18.61;85.90
26807;BME280;14380;49.910;6.792;2023-05-29T06:40:43;99160.41;;;19.28;87.80
26807;BME280;14380;49.910;6.792;2023-05-29T06:43:10;99154.00;;;18.98;86.44
26807;BME280;14380;49.910;6.792;2023-05-29T06:45:36;99161.31;;;18.96;84.04
26807;BME280;14380;49.910;6.792;2023-05-29T06:48:03;99166.22;;;19.12;83.94
26807;BME280;14380;49.910;6.792;2023-05-29T06:50:31;99164.97;;;19.16;84.45
26807;BME280;14380;49.910;6.792;2023-05-29T06:52:59;99167.66;;;19.16;83.15
26807;BME280;14380;49.910;6.792;2023-05-29T06:55:25;99163.84;;;19.40;84.40
26807;BME280;14380;49.910;6.792;2023-05-29T06:57:52;99169.47;;;19.15;84.66
26807;BME280;14380;49.910;6.792;2023-05-29T07:00:19;99167.41;;;18.86;84.03
26807;BME280;14380;49.910;6.792;2023-05-29T07:02:46;99166.28;;;18.89;85.68
26807;BME280;14380;49.910;6.792;2023-05-29T07:05:12;99161.38;;;19.06;83.90
26807;BME280;14380;49.910;6.792;2023-05-29T07:07:40;99169.44;;;18.94;84.69
26807;BME280;14380;49.910;6.792;2023-05-29T07:12:44;99175.16;;;19.22;83.43
26807;BME280;14380;49.910;6.792;2023-05-29T07:15:10;99171.44;;;19.13;85.16
26807;BME280;14380;49.910;6.792;2023-05-29T07:17:37;99173.00;;;19.16;84.20
26807;BME280;14380;49.910;6.792;2023-05-29T07:20:04;99178.16;;;19.50;84.39
26807;BME280;14380;49.910;6.792;2023-05-29T07:22:33;99176.56;;;19.47;84.77
26807;BME280;14380;49.910;6.792;2023-05-29T07:25:01;99182.81;;;20.10;85.50
26807;BME280;14380;49.910;6.792;2023-05-29T07:27:28;99176.69;;;19.88;83.75
26807;BME280;14380;49.910;6.792;2023-05-29T07:29:55;99175.72;;;19.89;82.90
26807;BME280;14380;49.910;6.792;2023-05-29T07:32:22;99177.59;;;19.77;82.20
26807;BME280;14380;49.910;6.792;2023-05-29T07:34:48;99171.50;;;20.47;82.95
26807;BME280;14380;49.910;6.792;2023-05-29T07:37:15;99174.50;;;20.13;82.16
26807;BME280;14380;49.910;6.792;2023-05-29T07:39:44;99172.63;;;20.35;82.09
26807;BME280;14380;49.910;6.792;2023-05-29T07:42:12;99167.75;;;20.79;83.35
26807;BME280;14380;49.910;6.792;2023-05-29T07:44:39;99183.06;;;20.48;81.02
26807;BME280;14380;49.910;6.792;2023-05-29T07:47:07;99180.56;;;20.46;82.59
26807;BME280;14380;49.910;6.792;2023-05-29T07:49:34;99176.13;;;20.35;79.66
26807;BME280;14380;49.910;6.792;2023-05-29T07:52:02;99181.28;;;20.58;79.37
26807;BME280;14380;49.910;6.792;2023-05-29T07:54:29;99173.66;;;21.22;81.71
26807;BME280;14380;49.910;6.792;2023-05-29T07:56:57;99186.91;;;20.55;80.01
26807;BME280;14380;49.910;6.792;2023-05-29T07:59:26;99185.84;;;20.77;81.14
26807;BME280;14380;49.910;6.792;2023-05-29T08:01:52;99181.00;;;20.61;79.90
26807;BME280;14380;49.910;6.792;2023-05-29T08:04:19;99181.13;;;20.60;78.58
26807;BME280;14380;49.910;6.792;2023-05-29T08:06:45;99169.59;;;20.99;79.15
26807;BME280;14380;49.910;6.792;2023-05-29T08:09:12;99171.53;;;20.67;78.80
26807;BME280;14380;49.910;6.792;2023-05-29T08:11:39;99171.72;;;20.85;80.41
26807;BME280;14380;49.910;6.792;2023-05-29T08:14:06;99166.34;;;21.15;79.18
26807;BME280;14380;49.910;6.792;2023-05-29T08:16:34;99172.13;;;21.20;77.82
26807;BME280;14380;49.910;6.792;2023-05-29T08:19:01;99180.47;;;20.77;78.60
26807;BME280;14380;49.910;6.792;2023-05-29T08:21:29;99181.44;;;20.76;77.47
26807;BME280;14380;49.910;6.792;2023-05-29T08:23:56;99176.38;;;20.83;77.68
26807;BME280;14380;49.910;6.792;2023-05-29T08:26:23;99179.91;;;20.93;77.32
26807;BME280;14380;49.910;6.792;2023-05-29T08:28:50;99165.75;;;21.31;75.05
26807;BME280;14380;49.910;6.792;2023-05-29T08:31:17;99169.28;;;21.21;77.16
26807;BME280;14380;49.910;6.792;2023-05-29T08:33:45;99165.91;;;21.29;74.72
26807;BME280;14380;49.910;6.792;2023-05-29T08:36:11;99172.84;;;20.92;76.08
26807;BME280;14380;49.910;6.792;2023-05-29T08:38:38;99176.88;;;21.46;75.07
26807;BME280;14380;49.910;6.792;2023-05-29T08:41:05;99170.25;;;21.40;76.69
26807;BME280;14380;49.910;6.792;2023-05-29T08:43:34;99169.09;;;21.43;76.65
26807;BME280;14380;49.910;6.792;2023-05-29T08:46:02;99168.00;;;21.93;73.40
26807;BME280;14380;49.910;6.792;2023-05-29T08:48:30;99170.53;;;21.94;73.94
26807;BME280;14380;49.910;6.792;2023-05-29T08:51:02;99160.44;;;22.06;73.64
26807;BME280;14380;49.910;6.792;2023-05-29T08:53:30;99170.94;;;22.55;75.68
26807;BME280;14380;49.910;6.792;2023-05-29T08:55:57;99155.28;;;22.69;70.71
26807;BME280;14380;49.910;6.792;2023-05-29T08:58:24;99161.13;;;22.36;73.11
26807;BME280;14380;49.910;6.792;2023-05-29T09:00:52;99162.00;;;22.55;72.50
26807;BME280;14380;49.910;6.792;2023-05-29T09:03:20;99161.53;;;22.41;70.02
26807;BME280;14380;49.910;6.792;2023-05-29T09:05:48;99160.03;;;22.29;73.24
26807;BME280;14380;49.910;6.792;2023-05-29T09:08:16;99146.03;;;22.71;70.07
26807;BME280;14380;49.910;6.792;2023-05-29T09:10:44;99160.53;;;22.42;69.79
26807;BME280;14380;49.910;6.792;2023-05-29T09:13:10;99158.88;;;22.60;71.81
26807;BME280;14380;49.910;6.792;2023-05-29T09:15:39;99150.59;;;21.97;69.03
26807;BME280;14380;49.910;6.792;2023-05-29T09:18:08;99157.03;;;22.32;68.94
26807;BME280;14380;49.910;6.792;2023-05-29T09:20:35;99153.75;;;22.38;69.64
26807;BME280;14380;49.910;6.792;2023-05-29T09:23:03;99157.41;;;23.01;70.34
26807;BME280;14380;49.910;6.792;2023-05-29T09:25:32;99158.66;;;22.89;69.01
26807;BME280;14380;49.910;6.792;2023-05-29T09:28:00;99148.91;;;22.70;68.50
26807;BME280;14380;49.910;6.792;2023-05-29T09:30:32;99156.56;;;22.83;65.99
26807;BME280;14380;49.910;6.792;2023-05-29T09:32:59;99158.56;;;22.63;67.70
26807;BME280;14380;49.910;6.792;2023-05-29T09:35:32;99160.94;;;23.02;66.32
26807;BME280;14380;49.910;6.792;2023-05-29T09:37:59;99165.03;;;22.52;67.06
26807;BME280;14380;49.910;6.792;2023-05-29T09:40:26;99159.34;;;22.73;65.55
26807;BME280;14380;49.910;6.792;2023-05-29T09:42:54;99163.56;;;22.76;67.42
26807;BME280;14380;49.910;6.792;2023-05-29T09:45:21;99169.56;;;22.51;63.88
26807;BME280;14380;49.910;6.792;2023-05-29T09:47:50;99160.03;;;22.93;65.75
26807;BME280;14380;49.910;6.792;2023-05-29T09:50:18;99169.66;;;22.60;65.41
26807;BME280;14380;49.910;6.792;2023-05-29T09:52:46;99162.78;;;22.83;66.08
26807;BME280;14380;49.910;6.792;2023-05-29T09:55:18;99163.25;;;23.59;65.17
26807;BME280;14380;49.910;6.792;2023-05-29T09:57:47;99164.78;;;23.36;62.71
26807;BME280;14380;49.910;6.792;2023-05-29T10:00:15;99164.88;;;23.79;63.95
26807;BME280;14380;49.910;6.792;2023-05-29T10:02:43;99161.28;;;23.43;64.61
26807;BME280;14380;49.910;6.792;2023-05-29T10:05:10;99168.16;;;23.38;64.94
26807;BME280;14380;49.910;6.792;2023-05-29T10:07:44;99167.63;;;23.16;65.08
26807;BME280;14380;49.910;6.792;2023-05-29T10:10:13;99161.66;;;23.75;64.35
26807;BME280;14380;49.910;6.792;2023-05-29T10:12:44;99157.59;;;23.71;63.64
26807;BME280;14380;49.910;6.792;2023-05-29T10:15:16;99152.00;;;23.38;65.03
26807;BME280;14380;49.910;6.792;2023-05-29T10:17:49;99159.06;;;23.65;63.65
26807;BME280;14380;49.910;6.792;2023-05-29T10:20:17;99151.03;;;23.47;65.10
26807;BME280;14380;49.910;6.792;2023-05-29T10:22:49;99155.47;;;23.30;64.66
26807;BME280;14380;49.910;6.792;2023-05-29T10:25:18;99155.72;;;23.71;61.82
26807;BME280;14380;49.910;6.792;2023-05-29T10:27:45;99144.50;;;23.50;63.47
26807;BME280;14380;49.910;6.792;2023-05-29T10:30:20;99154.78;;;23.28;62.18
26807;BME280;14380;49.910;6.792;2023-05-29T10:33:01;99157.63;;;23.79;62.75
26807;BME280;14380;49.910;6.792;2023-05-29T10:35:41;99160.00;;;24.17;64.97
26807;BME280;14380;49.910;6.792;2023-05-29T10:38:11;99164.94;;;24.22;62.14
26807;BME280;14380;49.910;6.792;2023-05-29T10:40:40;99154.41;;;23.75;60.74
26807;BME280;14380;49.910;6.792;2023-05-29T10:43:07;99155.94;;;24.04;62.52
26807;BME280;14380;49.910;6.792;2023-05-29T10:45:50;99159.91;;;23.66;60.61
26807;BME280;14380;49.910;6.792;2023-05-29T10:48:36;99146.22;;;23.94;61.33
26807;BME280;14380;49.910;6.792;2023-05-29T10:51:05;99135.28;;;23.95;60.30
26807;BME280;14380;49.910;6.792;2023-05-29T10:53:33;99142.78;;;24.10;62.62
26807;BME280;14380;49.910;6.792;2023-05-29T10:56:00;99139.31;;;24.26;62.48
26807;BME280;14380;49.910;6.792;2023-05-29T10:58:30;99139.84;;;23.68;60.86
26807;BME280;14380;49.910;6.792;2023-05-29T11:00:58;99140.41;;;23.98;61.58
26807;BME280;14380;49.910;6.792;2023-05-29T11:03:29;99135.94;;;24.32;63.17
26807;BME280;14380;49.910;6.792;2023-05-29T11:05:59;99153.50;;;23.67;58.58
26807;BME280;14380;49.910;6.792;2023-05-29T11:08:33;99133.16;;;24.07;61.76
26807;BME280;14380;49.910;6.792;2023-05-29T11:11:00;99145.22;;;24.29;59.64
26807;BME280;14380;49.910;6.792;2023-05-29T11:13:32;99137.91;;;24.81;61.23
26807;BME280;14380;49.910;6.792;2023-05-29T11:16:19;99136.06;;;24.98;60.93
26807;BME280;14380;49.910;6.792;2023-05-29T11:18:47;99150.56;;;24.21;59.47
26807;BME280;14380;49.910;6.792;2023-05-29T11:21:30;99145.03;;;24.23;58.94
26807;BME280;14380;49.910;6.792;2023-05-29T11:23:59;99138.91;;;25.21;60.30
26807;BME280;14380;49.910;6.792;2023-05-29T11:26:29;99137.38;;;24.69;60.31
26807;BME280;14380;49.910;6.792;2023-05-29T11:29:00;99146.47;;;24.60;58.40
26807;BME280;14380;49.910;6.792;2023-05-29T11:31:28;99137.06;;;24.72;59.51
26807;BME280;14380;49.910;6.792;2023-05-29T11:33:59;99144.16;;;24.82;60.33
26807;BME280;14380;49.910;6.792;2023-05-29T11:36:30;99150.28;;;24.32;59.18
26807;BME280;14380;49.910;6.792;2023-05-29T11:38:58;99135.28;;;24.38;56.30
26807;BME280;14380;49.910;6.792;2023-05-29T11:41:25;99126.03;;;24.57;59.14
26807;BME280;14380;49.910;6.792;2023-05-29T11:43:59;99135.38;;;24.79;58.85
26807;BME280;14380;49.910;6.792;2023-05-29T11:46:28;99132.94;;;24.43;55.81
26807;BME280;14380;49.910;6.792;2023-05-29T11:48:58;99142.13;;;24.84;58.63
26807;BME280;14380;49.910;6.792;2023-05-29T11:51:24;99140.72;;;24.55;55.22
26807;BME280;14380;49.910;6.792;2023-05-29T11:53:51;99130.63;;;25.39;56.60
26807;BME280;14380;49.910;6.792;2023-05-29T11:56:23;99118.66;;;25.17;55.47
26807;BME280;14380;49.910;6.792;2023-05-29T11:58:50;99136.38;;;24.78;57.21
26807;BME280;14380;49.910;6.792;2023-05-29T12:01:20;99126.91;;;24.74;54.13
26807;BME280;14380;49.910;6.792;2023-05-29T12:03:50;99139.75;;;24.80;56.57
26807;BME280;14380;49.910;6.792;2023-05-29T12:06:30;99122.38;;;24.83;52.65
26807;BME280;14380;49.910;6.792;2023-05-29T12:08:57;99137.56;;;25.17;55.32
26807;BME280;14380;49.910;6.792;2023-05-29T12:11:24;99133.50;;;25.30;53.51
26807;BME280;14380;49.910;6.792;2023-05-29T12:13:55;99131.84;;;24.79;50.55
26807;BME280;14380;49.910;6.792;2023-05-29T12:16:22;99129.97;;;25.13;54.33
26807;BME280;14380;49.910;6.792;2023-05-29T12:18:51;99122.03;;;25.28;55.07
26807;BME280;14380;49.910;6.792;2023-05-29T12:21:19;99116.78;;;25.26;55.70
26807;BME280;14380;49.910;6.792;2023-05-29T12:23:46;99132.31;;;24.74;53.97
26807;BME280;14380;49.910;6.792;2023-05-29T12:26:12;99121.16;;;24.61;53.72
26807;BME280;14380;49.910;6.792;2023-05-29T12:28:42;99113.44;;;24.83;54.37
26807;BME280;14380;49.910;6.792;2023-05-29T12:31:09;99121.03;;;24.87;54.51
26807;BME280;14380;49.910;6.792;2023-05-29T12:33:40;99109.00;;;24.57;52.40
26807;BME280;14380;49.910;6.792;2023-05-29T12:36:12;99112.56;;;25.15;56.29
26807;BME280;14380;49.910;6.792;2023-05-29T12:38:46;99106.16;;;25.00;55.39
26807;BME280;14380;49.910;6.792;2023-05-29T12:41:22;99112.91;;;25.20;58.51
26807;BME280;14380;49.910;6.792;2023-05-29T12:43:49;99128.78;;;25.15;56.38
26807;BME280;14380;49.910;6.792;2023-05-29T12:46:16;99119.19;;;25.04;55.71
26807;BME280;14380;49.910;6.792;2023-05-29T12:48:42;99119.69;;;24.83;55.42
26807;BME280;14380;49.910;6.792;2023-05-29T12:51:10;99112.09;;;25.03;57.31
26807;BME280;14380;49.910;6.792;2023-05-29T12:53:37;99117.47;;;25.45;56.56
26807;BME280;14380;49.910;6.792;2023-05-29T12:56:05;99112.72;;;25.30;56.25
26807;BME280;14380;49.910;6.792;2023-05-29T12:58:31;99119.13;;;25.29;57.49
26807;BME280;14380;49.910;6.792;2023-05-29T13:00:58;99127.28;;;25.13;57.06
26807;BME280;14380;49.910;6.792;2023-05-29T13:03:25;99112.53;;;25.40;56.00
26807;BME280;14380;49.910;6.792;2023-05-29T13:05:52;99109.44;;;25.68;55.61
26807;BME280;14380;49.910;6.792;2023-05-29T13:08:20;99120.72;;;25.80;55.52
26807;BME280;14380;49.910;6.792;2023-05-29T13:10:47;99110.94;;;25.71;56.08
26807;BME280;14380;49.910;6.792;2023-05-29T13:13:13;99108.44;;;25.69;53.80
26807;BME280;14380;49.910;6.792;2023-05-29T13:15:40;99118.94;;;26.04;56.60
26807;BME280;14380;49.910;6.792;2023-05-29T13:18:07;99121.41;;;25.82;54.17
26807;BME280;14380;49.910;6.792;2023-05-29T13:20:33;99109.50;;;26.00;55.75
26807;BME280;14380;49.910;6.792;2023-05-29T13:23:00;99107.25;;;25.63;57.14
26807;BME280;14380;49.910;6.792;2023-05-29T13:25:28;99115.34;;;25.63;57.96
26807;BME280;14380;49.910;6.792;2023-05-29T13:27:54;99106.88;;;25.75;55.53
26807;BME280;14380;49.910;6.792;2023-05-29T13:30:21;99100.28;;;26.09;55.62
26807;BME280;14380;49.910;6.792;2023-05-29T13:32:48;99104.69;;;26.18;56.64
26807;BME280;14380;49.910;6.792;2023-05-29T13:35:15;99098.41;;;26.26;58.79
26807;BME280;14380;49.910;6.792;2023-05-29T13:37:41;99106.56;;;25.69;57.75
26807;BME280;14380;49.910;6.792;2023-05-29T13:40:09;99106.88;;;25.75;58.30
26807;BME280;14380;49.910;6.792;2023-05-29T13:42:38;99098.72;;;25.91;56.04
26807;BME280;14380;49.910;6.792;2023-05-29T13:45:06;99095.28;;;25.58;58.01
26807;BME280;14380;49.910;6.792;2023-05-29T13:47:33;99087.19;;;25.97;57.05
26807;BME280;14380;49.910;6.792;2023-05-29T13:50:00;99087.63;;;26.09;57.96
26807;BME280;14380;49.910;6.792;2023-05-29T13:52:27;99101.16;;;26.18;58.20
26807;BME280;14380;49.910;6.792;2023-05-29T13:54:53;99094.34;;;26.22;57.92
26807;BME280;14380;49.910;6.792;2023-05-29T13:57:20;99092.44;;;25.91;58.12
26807;BME280;14380;49.910;6.792;2023-05-29T13:59:48;99102.56;;;25.57;57.13
26807;BME280;14380;49.910;6.792;2023-05-29T14:02:15;99098.66;;;25.60;58.50
26807;BME280;14380;49.910;6.792;2023-05-29T14:04:42;99103.94;;;25.93;57.46
26807;BME280;14380;49.910;6.792;2023-05-29T14:07:08;99102.22;;;26.00;57.07
26807;BME280;14380;49.910;6.792;2023-05-29T14:09:35;99106.56;;;25.69;55.91